createdAt,value
2022-11-12T00:04:31.339Z,87.12
2022-11-12T00:09:31.281Z,85.35
2022-11-12T00:14:31.205Z,83.76
2022-11-12T00:19:31.132Z,85.04
2022-11-12T00:24:31.191Z,83.73
2022-11-12T00:29:31.071Z,86.09
2022-11-12T00:34:30.927Z,84.52
2022-11-12T00:39:31.000Z,83.07
2022-11-12T00:44:30.832Z,84.19
2022-11-12T00:49:30.847Z,84.45
2022-11-12T00:54:30.712Z,84.66
2022-11-12T00:59:33.638Z,83.94
2022-11-12T01:04:30.526Z,87.23
2022-11-12T01:09:30.535Z,86.25
2022-11-12T01:14:30.476Z,85.08
2022-11-12T01:19:30.391Z,82.83
2022-11-12T01:24:30.367Z,83.80
2022-11-12T01:29:30.272Z,84.66
2022-11-12T01:34:30.125Z,84.63
2022-11-12T01:39:30.145Z,83.94
2022-11-12T01:44:30.116Z,83.84
2022-11-12T01:49:29.986Z,84.15
2022-11-12T01:54:29.940Z,83.07
2022-11-12T01:59:33.421Z,83.39
2022-11-12T02:04:29.770Z,84.15
2022-11-12T02:09:29.745Z,82.93
2022-11-12T02:14:29.784Z,80.97
2022-11-12T02:19:29.595Z,82.66
2022-11-12T02:24:29.540Z,82.15
2022-11-12T02:29:29.520Z,83.91
2022-11-12T02:34:29.320Z,85.82
2022-11-12T02:39:37.125Z,84.95
2022-11-12T02:44:29.259Z,87.20
2022-11-12T02:49:29.319Z,86.02
2022-11-12T02:54:29.142Z,84.95
2022-11-12T02:59:32.159Z,84.22
2022-11-12T03:04:29.023Z,84.68
2022-11-12T03:09:29.670Z,84.37
2022-11-12T03:14:28.969Z,84.20
2022-11-12T03:19:36.984Z,84.88
2022-11-12T03:24:36.360Z,81.39
2022-11-12T03:29:28.739Z,82.71
2022-11-12T03:34:28.690Z,85.94
2022-11-12T03:39:28.655Z,85.44
2022-11-12T03:44:28.455Z,85.24
2022-11-12T03:49:28.604Z,83.71
2022-11-12T03:54:28.282Z,83.75
2022-11-12T03:59:31.279Z,82.46
2022-11-12T04:04:28.226Z,85.21
2022-11-12T04:09:28.171Z,86.49
2022-11-12T04:14:28.160Z,86.91
2022-11-12T04:19:28.143Z,86.31
2022-11-12T04:24:27.901Z,83.10
2022-11-12T04:29:28.018Z,85.17
2022-11-12T04:34:27.887Z,84.23
2022-11-12T04:39:28.036Z,84.67
2022-11-12T04:44:27.825Z,86.12
2022-11-12T04:49:27.675Z,85.91
2022-11-12T04:54:27.680Z,86.22
2022-11-12T04:59:30.471Z,85.42
2022-11-12T05:04:27.505Z,85.08
2022-11-12T05:09:27.578Z,86.05
2022-11-12T05:14:27.258Z,86.74
2022-11-12T05:19:27.319Z,85.74
2022-11-12T05:24:40.947Z,84.73
2022-11-12T05:29:28.272Z,85.43
2022-11-12T05:34:27.165Z,88.00
2022-11-12T05:39:27.556Z,84.91
2022-11-12T05:44:26.866Z,86.16
2022-11-12T05:49:26.932Z,85.77
2022-11-12T05:54:26.800Z,83.34
2022-11-12T05:59:36.524Z,83.28
2022-11-12T06:04:26.776Z,88.42
2022-11-12T06:09:26.949Z,84.11
2022-11-12T06:14:26.572Z,83.14
2022-11-12T06:19:26.656Z,85.82
2022-11-12T06:24:30.701Z,87.48
2022-11-12T06:29:27.418Z,84.56
2022-11-12T06:34:26.385Z,84.36
2022-11-12T06:39:27.084Z,82.76
2022-11-12T06:44:26.079Z,82.45
2022-11-12T06:49:26.055Z,85.82
2022-11-12T06:54:25.936Z,85.29
2022-11-12T06:59:28.951Z,82.72
2022-11-12T07:04:25.859Z,83.07
2022-11-12T07:09:25.836Z,83.65
2022-11-12T07:14:25.926Z,84.48
2022-11-12T07:19:25.665Z,83.26
2022-11-12T07:24:25.890Z,82.05
2022-11-12T07:29:46.262Z,81.23
2022-11-12T07:34:26.682Z,81.88
2022-11-12T07:39:25.364Z,82.32
2022-11-12T07:44:25.380Z,80.76
2022-11-12T07:49:33.266Z,79.45
2022-11-12T07:54:32.830Z,78.21
2022-11-12T07:59:28.117Z,78.80
2022-11-12T08:04:25.051Z,79.41
2022-11-12T08:09:25.123Z,77.69
2022-11-12T08:14:25.004Z,76.63
2022-11-12T08:19:24.893Z,75.90
2022-11-12T08:24:24.946Z,75.87
2022-11-12T08:29:24.790Z,75.12
2022-11-12T08:34:24.874Z,74.36
2022-11-12T08:39:24.707Z,74.46
2022-11-12T08:44:24.509Z,74.33
2022-11-12T08:49:24.643Z,74.19
2022-11-12T08:54:24.383Z,73.44
2022-11-12T08:59:27.341Z,73.50
2022-11-12T09:04:24.226Z,74.77
2022-11-12T09:09:24.289Z,73.27
2022-11-12T09:14:24.492Z,72.51
2022-11-12T09:19:25.517Z,72.27
2022-11-12T09:24:24.006Z,71.83
2022-11-12T09:29:24.047Z,72.00
2022-11-12T09:34:23.956Z,71.59
2022-11-12T09:39:23.923Z,71.39
2022-11-12T09:44:24.109Z,71.15
2022-11-12T09:49:23.990Z,71.08
2022-11-12T09:54:23.583Z,70.78
2022-11-12T09:59:26.737Z,69.69
2022-11-12T10:04:23.689Z,70.54
2022-11-12T10:09:23.461Z,68.12
2022-11-12T10:14:23.368Z,68.16
2022-11-12T10:19:31.256Z,67.08
2022-11-12T10:24:23.175Z,66.70
2022-11-12T10:29:35.797Z,67.69
2022-11-12T10:34:23.216Z,67.46
2022-11-12T10:39:23.133Z,66.94
2022-11-12T10:44:23.017Z,65.66
2022-11-12T10:49:23.062Z,64.92
2022-11-12T10:54:22.950Z,64.51
2022-11-12T10:59:25.871Z,64.38
2022-11-12T11:04:22.710Z,64.92
2022-11-12T11:09:22.705Z,63.33
2022-11-12T11:14:22.509Z,64.12
2022-11-12T11:19:22.865Z,64.18
2022-11-12T11:24:22.394Z,62.66
2022-11-12T11:29:22.496Z,61.82
2022-11-12T11:34:22.275Z,61.69
2022-11-12T11:39:22.386Z,60.75
2022-11-12T11:44:22.252Z,60.78
2022-11-12T11:49:22.079Z,61.56
2022-11-12T11:54:22.030Z,60.75
2022-11-12T11:59:24.955Z,61.23
2022-11-12T12:04:21.870Z,62.60
2022-11-12T12:09:21.921Z,62.34
2022-11-12T12:14:21.725Z,61.60
2022-11-12T12:19:22.625Z,62.34
2022-11-12T12:24:21.654Z,61.74
2022-11-12T12:29:21.572Z,61.74
2022-11-12T12:34:21.558Z,61.56
2022-11-12T12:39:21.422Z,61.97
2022-11-12T12:44:21.345Z,62.68
2022-11-12T12:49:29.089Z,62.62
2022-11-12T12:54:28.669Z,62.31
2022-11-12T12:59:24.142Z,64.17
2022-11-12T13:04:21.108Z,64.94
2022-11-12T13:09:21.122Z,63.69
2022-11-12T13:14:20.886Z,63.66
2022-11-12T13:19:20.877Z,64.47
2022-11-12T13:24:20.830Z,64.40
2022-11-12T13:29:20.808Z,64.70
2022-11-12T13:34:20.719Z,65.52
2022-11-12T13:39:20.586Z,65.21
2022-11-12T13:44:20.491Z,64.70
2022-11-12T13:49:20.439Z,65.45
2022-11-12T13:54:20.410Z,66.26
2022-11-12T13:59:23.516Z,67.17
2022-11-12T14:04:20.291Z,69.20
2022-11-12T14:09:20.159Z,68.22
2022-11-12T14:14:20.178Z,68.96
2022-11-12T14:19:20.079Z,70.14
2022-11-12T14:24:19.995Z,71.30
2022-11-12T14:29:19.915Z,71.19
2022-11-12T14:34:19.935Z,72.89
2022-11-12T14:39:19.841Z,75.10
2022-11-12T14:44:19.770Z,74.45
2022-11-12T14:49:19.642Z,75.16
2022-11-12T14:54:19.568Z,75.10
2022-11-12T14:59:22.571Z,75.34
2022-11-12T15:04:19.521Z,76.93
2022-11-12T15:09:19.405Z,76.46
2022-11-12T15:14:19.315Z,77.66
2022-11-12T15:19:19.256Z,77.70
2022-11-12T15:24:19.294Z,79.33
2022-11-12T15:29:19.159Z,79.98
2022-11-12T15:34:19.011Z,80.77
2022-11-12T15:39:19.099Z,80.91
2022-11-12T15:44:18.909Z,81.73
2022-11-12T15:49:19.039Z,81.46
2022-11-12T15:54:18.767Z,82.83
2022-11-12T15:59:21.780Z,83.34
2022-11-12T16:04:18.664Z,84.14
2022-11-12T16:09:18.630Z,83.49
2022-11-12T16:14:23.553Z,84.39
2022-11-12T16:19:19.490Z,84.94
2022-11-12T16:24:18.423Z,83.94
2022-11-12T16:29:18.317Z,85.04
2022-11-12T16:34:18.230Z,85.25
2022-11-12T16:39:18.366Z,85.18
2022-11-12T16:44:18.225Z,84.88
2022-11-12T16:49:18.121Z,85.43
2022-11-12T16:54:17.945Z,86.29
2022-11-12T16:59:21.320Z,85.53
2022-11-12T17:04:18.036Z,87.05
2022-11-12T17:09:17.795Z,85.98
2022-11-12T17:14:17.817Z,85.26
2022-11-12T17:19:17.689Z,86.23
2022-11-12T17:24:17.737Z,86.47
2022-11-12T17:29:25.475Z,86.23
2022-11-12T17:34:24.906Z,85.94
2022-11-12T17:39:25.190Z,84.54
2022-11-12T17:44:17.396Z,85.30
2022-11-12T17:49:17.423Z,84.93
2022-11-12T17:54:17.183Z,86.79
2022-11-12T17:59:20.140Z,86.41
2022-11-12T18:04:17.059Z,88.51
2022-11-12T18:09:17.156Z,86.21
2022-11-12T18:14:16.941Z,86.97
2022-11-12T18:19:16.923Z,87.42
2022-11-12T18:24:16.765Z,87.13
2022-11-12T18:29:16.802Z,87.07
2022-11-12T18:34:16.731Z,85.34
2022-11-12T18:39:16.642Z,86.29
2022-11-12T18:44:16.591Z,87.21
2022-11-12T18:49:16.535Z,86.74
2022-11-12T18:54:16.495Z,88.18
2022-11-12T18:59:19.376Z,85.50
2022-11-12T19:04:16.281Z,88.41
2022-11-12T19:09:16.251Z,87.89
2022-11-12T19:14:16.126Z,87.08
2022-11-12T19:19:17.275Z,85.85
2022-11-12T19:24:16.041Z,85.23
2022-11-12T19:29:16.037Z,83.85
2022-11-12T19:34:15.884Z,83.37
2022-11-12T19:39:15.856Z,85.99
2022-11-12T19:44:15.836Z,85.54
2022-11-12T19:49:15.757Z,82.65
2022-11-12T19:54:15.578Z,86.69
2022-11-12T19:59:18.630Z,86.83
2022-11-12T20:04:18.909Z,89.36
2022-11-12T20:09:16.600Z,88.39
2022-11-12T20:14:15.386Z,85.45
2022-11-12T20:19:15.313Z,85.21
2022-11-12T20:24:15.247Z,85.41
2022-11-12T20:29:15.310Z,86.15
2022-11-12T20:34:15.213Z,85.91
2022-11-12T20:39:15.275Z,86.63
2022-11-12T20:44:15.192Z,84.87
2022-11-12T20:49:15.035Z,85.88
2022-11-12T20:54:14.822Z,87.68
2022-11-12T20:59:17.795Z,87.23
2022-11-12T21:04:14.741Z,88.78
2022-11-12T21:09:14.751Z,87.29
2022-11-12T21:14:14.686Z,85.18
2022-11-12T21:19:22.583Z,83.65
2022-11-12T21:24:14.460Z,85.68
2022-11-12T21:29:18.814Z,86.99
2022-11-12T21:34:14.414Z,87.93
2022-11-12T21:39:14.301Z,88.39
2022-11-12T21:44:14.148Z,88.03
2022-11-12T21:49:14.194Z,87.43
2022-11-12T21:54:21.461Z,86.19
2022-11-12T21:59:24.751Z,86.19
2022-11-12T22:04:18.185Z,87.93
2022-11-12T22:09:14.107Z,86.13
2022-11-12T22:14:13.869Z,87.14
2022-11-12T22:19:13.926Z,87.33
2022-11-12T22:24:13.647Z,83.95
2022-11-12T22:29:13.790Z,85.19
2022-11-12T22:34:13.499Z,87.97
2022-11-12T22:39:13.960Z,85.61
2022-11-12T22:44:13.418Z,85.71
2022-11-12T22:49:13.415Z,85.19
2022-11-12T22:54:13.376Z,83.54
2022-11-12T22:59:16.293Z,83.00
2022-11-12T23:04:13.191Z,88.15
2022-11-12T23:09:13.083Z,86.25
2022-11-12T23:14:12.968Z,85.06
2022-11-12T23:19:13.042Z,87.24
2022-11-12T23:24:12.886Z,86.62
2022-11-12T23:29:13.100Z,88.65
2022-11-12T23:34:12.786Z,87.10
2022-11-12T23:39:12.748Z,88.69
2022-11-12T23:44:12.743Z,89.36
2022-11-12T23:49:14.626Z,89.79
2022-11-12T23:54:12.471Z,89.11
2022-11-12T23:59:15.531Z,89.15
